Weather at Tulloch Airstrip

Public forecast

Using degrees Celsius for public forecast. Weather courtesy of forecast.io.

Closest aviation weather report (METAR) to Tulloch Airstrip

Closest report is Norman Manley International Airport, 15.3 nm (28.3 km) SE. Retrieved 2022/01/24 09:00 UTC (57 minutes ago):

MKJP 240900Z 33006KT 9999 FEW022 24/20 Q1013

Closest aviation forecast (TAF) to Tulloch Airstrip

Closest forecast is Norman Manley International Airport, 15.3 nm (28.3 km) SE. Retrieved 2022/01/24 06:21 UTC (4 hours ago):

TAF MKJP 240515Z 2406/2506 35005KT 9999 FEW022 BECMG 2514/2516 14015KT BECMG 2501/2503 35005KT